Time;durP1;ratioP1;P1;durP2;ratioP2;P2;SDS_P1;SDS_P2;PMS_P1;PMS_P2;Temp;Humidity;BMP_temperature;BMP_pressure;BME280_temperature;BME280_humidity;BME280_pressure;Samples;Min_cycle;Max_cycle;Signal;HPM_P1;HPM_P2
2023/10/01 00:00:05;;;;;;;12.48;6.70;;;;;;;;;;5056260;28;20052;-81
2023/10/01 00:02:32;;;;;;;13.73;6.13;;;;;;;;;;5052489;28;20110;-81
2023/10/01 00:04:57;;;;;;;14.63;7.60;;;;;;;;;;5074937;28;20036;-82
2023/10/01 00:07:22;;;;;;;12.65;5.85;;;;;;;;;;5055466;28;20486;-81
2023/10/01 00:09:47;;;;;;;14.13;5.93;;;;;;;;;;5068675;28;20060;-82
2023/10/01 00:12:12;;;;;;;18.60;7.55;;;;;;;;;;5050717;28;20278;-82
2023/10/01 00:14:38;;;;;;;13.90;6.32;;;;;;;;;;5055151;28;20485;-82
2023/10/01 00:17:04;;;;;;;12.85;6.13;;;;;;;;;;5055975;28;20041;-82
2023/10/01 00:19:30;;;;;;;16.70;7.05;;;;;;;;;;5057333;28;20064;-81
2023/10/01 00:21:55;;;;;;;15.40;6.53;;;;;;;;;;5069968;28;20061;-80
2023/10/01 00:24:20;;;;;;;14.45;5.60;;;;;;;;;;5057491;28;20027;-81
2023/10/01 00:26:45;;;;;;;10.38;5.35;;;;;;;;;;5066333;28;20055;-82
2023/10/01 00:29:11;;;;;;;10.38;5.47;;;;;;;;;;5067192;28;20056;-82
2023/10/01 00:31:37;;;;;;;12.70;5.47;;;;;;;;;;5040631;28;20396;-81
2023/10/01 00:34:03;;;;;;;13.13;5.63;;;;;;;;;;5071064;28;20043;-81
2023/10/01 00:36:29;;;;;;;14.38;5.18;;;;;;;;;;5070211;28;20046;-81
2023/10/01 00:38:54;;;;;;;11.68;5.68;;;;;;;;;;5069170;28;20028;-81
2023/10/01 00:41:20;;;;;;;9.80;5.22;;;;;;;;;;5057261;28;20036;-82
2023/10/01 00:43:45;;;;;;;8.98;5.00;;;;;;;;;;5067436;28;20036;-82
2023/10/01 00:46:11;;;;;;;10.97;5.20;;;;;;;;;;5072344;28;20158;-80
2023/10/01 00:48:36;;;;;;;11.73;5.10;;;;;;;;;;5069741;28;20771;-81
2023/10/01 00:51:04;;;;;;;13.07;5.30;;;;;;;;;;5055643;28;20036;-82
2023/10/01 00:53:29;;;;;;;8.63;4.70;;;;;;;;;;5050769;28;20393;-82
2023/10/01 00:55:55;;;;;;;14.00;4.82;;;;;;;;;;5049762;28;20043;-80
2023/10/01 00:58:21;;;;;;;8.48;4.38;;;;;;;;;;5055570;28;20058;-82
2023/10/01 01:00:50;;;;;;;9.85;4.82;;;;;;;;;;5055205;28;20079;-81
2023/10/01 01:03:19;;;;;;;11.35;5.00;;;;;;;;;;5066840;28;20051;-81
2023/10/01 01:08:33;;;;;;;13.57;4.10;;;;;;;;;;5063026;28;20032;-81
2023/10/01 01:11:01;;;;;;;10.38;4.70;;;;;;;;;;5050080;28;20036;-80
2023/10/01 01:13:28;;;;;;;11.63;5.10;;;;;;;;;;5059848;28;20029;-82
2023/10/01 01:15:57;;;;;;;9.38;4.35;;;;;;;;;;5074963;28;20024;-80
2023/10/01 01:18:26;;;;;;;8.80;4.30;;;;;;;;;;5073256;28;20520;-80
2023/10/01 01:20:57;;;;;;;9.65;4.65;;;;;;;;;;5051256;28;20048;-82
2023/10/01 01:23:23;;;;;;;8.07;4.70;;;;;;;;;;5056568;28;20459;-82
2023/10/01 01:25:52;;;;;;;11.13;4.75;;;;;;;;;;5055738;28;20078;-82
2023/10/01 01:28:24;;;;;;;11.43;4.90;;;;;;;;;;5065133;28;20024;-82
2023/10/01 01:30:49;;;;;;;;;;;;;;;;;;5055262;28;20051;-81
2023/10/01 01:33:20;;;;;;;9.82;4.72;;;;;;;;;;5058176;28;19915;-82
2023/10/01 01:35:49;;;;;;;11.60;5.20;;;;;;;;;;5068687;28;20033;-82
2023/10/01 01:38:15;;;;;;;9.32;4.93;;;;;;;;;;5052129;28;20348;-82
2023/10/01 01:40:42;;;;;;;11.23;4.82;;;;;;;;;;5060051;28;20027;-80
2023/10/01 01:43:21;;;;;;;11.95;5.35;;;;;;;;;;5056068;28;20025;-82
2023/10/01 01:45:54;;;;;;;8.75;4.78;;;;;;;;;;5055529;28;20489;-82
2023/10/01 01:48:25;;;;;;;11.88;5.25;;;;;;;;;;5058667;28;20092;-81
2023/10/01 01:50:54;;;;;;;12.05;5.35;;;;;;;;;;5051576;28;20094;-80
2023/10/01 01:53:20;;;;;;;12.80;5.75;;;;;;;;;;5063895;28;20024;-82
2023/10/01 01:55:47;;;;;;;14.30;5.57;;;;;;;;;;5056993;28;20503;-82
2023/10/01 01:58:15;;;;;;;17.65;5.70;;;;;;;;;;5072128;28;20028;-82
2023/10/01 02:01:01;;;;;;;11.18;5.15;;;;;;;;;;5058758;28;20024;-82
2023/10/01 02:03:26;;;;;;;12.32;6.20;;;;;;;;;;5053092;28;20404;-82
2023/10/01 02:05:52;;;;;;;16.20;6.78;;;;;;;;;;5064745;28;20044;-78
2023/10/01 02:08:23;;;;;;;14.10;6.45;;;;;;;;;;5073344;28;20033;-80
2023/10/01 02:10:53;;;;;;;11.87;5.30;;;;;;;;;;5074024;28;20025;-82
2023/10/01 02:13:18;;;;;;;13.23;5.80;;;;;;;;;;5057330;28;20028;-82
2023/10/01 02:15:47;;;;;;;11.00;5.57;;;;;;;;;;5057265;28;20040;-81
2023/10/01 02:18:16;;;;;;;13.27;5.22;;;;;;;;;;5068101;28;20043;-81
2023/10/01 02:20:44;;;;;;;11.65;5.25;;;;;;;;;;5067731;28;20047;-80
2023/10/01 02:23:12;;;;;;;10.63;5.15;;;;;;;;;;5056553;28;20032;-82
2023/10/01 02:25:38;;;;;;;10.75;5.75;;;;;;;;;;5068044;28;20519;-82
2023/10/01 02:28:14;;;;;;;12.63;4.93;;;;;;;;;;5070834;28;20057;-82
2023/10/01 02:30:44;;;;;;;13.95;5.28;;;;;;;;;;5052399;28;20028;-81
2023/10/01 02:33:16;;;;;;;11.38;5.32;;;;;;;;;;5068545;28;20474;-81
2023/10/01 02:35:42;;;;;;;12.65;5.28;;;;;;;;;;5058940;28;20527;-81
2023/10/01 02:40:57;;;;;;;10.75;4.72;;;;;;;;;;5063955;28;20029;-82
2023/10/01 02:43:33;;;;;;;9.15;4.20;;;;;;;;;;5057122;28;20080;-82
2023/10/01 02:45:58;;;;;;;11.88;4.30;;;;;;;;;;5053422;28;20101;-82
2023/10/01 02:48:26;;;;;;;11.48;4.63;;;;;;;;;;5058129;28;20059;-82
2023/10/01 02:50:54;;;;;;;9.55;3.95;;;;;;;;;;5074080;28;20128;-82
2023/10/01 02:53:21;;;;;;;11.90;4.15;;;;;;;;;;5055818;28;20024;-81
2023/10/01 02:55:47;;;;;;;9.25;3.85;;;;;;;;;;5070674;28;20028;-82
2023/10/01 02:58:27;;;;;;;8.60;3.88;;;;;;;;;;5073045;28;20492;-82
2023/10/01 03:00:53;;;;;;;9.20;3.90;;;;;;;;;;5054728;28;20120;-81
2023/10/01 03:03:19;;;;;;;11.02;4.03;;;;;;;;;;5045564;28;20024;-81
2023/10/01 03:05:47;;;;;;;8.68;3.58;;;;;;;;;;5055667;28;20024;-80
2023/10/01 03:08:41;;;;;;;9.13;3.80;;;;;;;;;;5072031;28;20463;-81
2023/10/01 03:11:06;;;;;;;9.40;3.50;;;;;;;;;;5051001;28;20091;-81
2023/10/01 03:13:32;;;;;;;15.57;4.53;;;;;;;;;;5050435;28;20032;-81
2023/10/01 03:18:46;;;;;;;9.05;4.10;;;;;;;;;;5070793;28;20024;-82
2023/10/01 03:21:19;;;;;;;9.95;3.85;;;;;;;;;;5054457;28;20086;-82
2023/10/01 03:23:52;;;;;;;;;;;;;;;;;;5052646;28;20178;-82
2023/10/01 03:26:18;;;;;;;6.63;3.38;;;;;;;;;;5057518;28;19908;-82
2023/10/01 03:31:28;;;;;;;7.97;3.35;;;;;;;;;;5069957;28;20047;-81
2023/10/01 03:33:53;;;;;;;8.15;4.05;;;;;;;;;;5073181;28;20053;-82
2023/10/01 03:36:24;;;;;;;10.57;3.30;;;;;;;;;;5055309;28;20025;-81
2023/10/01 03:38:50;;;;;;;11.23;3.42;;;;;;;;;;5055490;28;20032;-81
2023/10/01 03:41:21;;;;;;;9.38;3.83;;;;;;;;;;5068344;28;20392;-82
2023/10/01 03:43:47;;;;;;;9.25;3.72;;;;;;;;;;5067888;28;20031;-81
2023/10/01 03:51:28;;;;;;;9.93;3.13;;;;;;;;;;5043859;28;20036;-82
2023/10/01 03:54:05;;;;;;;10.50;4.13;;;;;;;;;;5067860;28;20411;-81
2023/10/01 03:56:31;;;;;;;7.45;3.25;;;;;;;;;;5055111;28;20036;-83
2023/10/01 03:58:56;;;;;;;8.73;3.25;;;;;;;;;;5049635;28;20082;-82
2023/10/01 04:01:58;;;;;;;10.07;4.05;;;;;;;;;;5057282;28;20027;-81
2023/10/01 04:04:20;;;;;;;10.88;3.92;;;;;;;;;;5048792;28;20037;-82
2023/10/01 04:06:45;;;;;;;9.30;3.80;;;;;;;;;;5068009;28;20040;-81
2023/10/01 04:09:11;;;;;;;12.30;4.30;;;;;;;;;;5073940;28;20025;-81
2023/10/01 04:11:49;;;;;;;9.40;4.13;;;;;;;;;;5048854;28;20424;-82
2023/10/01 04:14:17;;;;;;;9.50;4.03;;;;;;;;;;5056788;28;20402;-80
2023/10/01 04:16:46;;;;;;;7.63;3.50;;;;;;;;;;5069475;28;20033;-81
2023/10/01 04:19:12;;;;;;;8.18;3.33;;;;;;;;;;5056184;28;20032;-82
2023/10/01 04:21:37;;;;;;;9.30;3.63;;;;;;;;;;5068308;28;20032;-80
2023/10/01 04:24:02;;;;;;;8.52;3.67;;;;;;;;;;5056835;28;20405;-82
2023/10/01 04:26:30;;;;;;;11.55;4.03;;;;;;;;;;5070318;28;20036;-82
2023/10/01 04:28:59;;;;;;;10.88;4.57;;;;;;;;;;5073210;28;20079;-82
2023/10/01 04:31:42;;;;;;;10.02;4.78;;;;;;;;;;5071533;28;20056;-82
2023/10/01 04:34:11;;;;;;;10.60;4.13;;;;;;;;;;5054397;28;20147;-81
2023/10/01 04:36:38;;;;;;;10.25;4.25;;;;;;;;;;5055915;28;20029;-82
2023/10/01 04:39:03;;;;;;;11.32;4.15;;;;;;;;;;5055212;28;20032;-81
2023/10/01 04:41:28;;;;;;;11.88;3.83;;;;;;;;;;5056854;28;20450;-82
2023/10/01 04:44:00;;;;;;;10.98;4.20;;;;;;;;;;5056996;28;20557;-82
2023/10/01 04:46:25;;;;;;;10.17;3.60;;;;;;;;;;5059310;28;20071;-82
2023/10/01 04:48:51;;;;;;;8.00;3.53;;;;;;;;;;5058505;28;20566;-82
2023/10/01 04:51:17;;;;;;;7.47;3.47;;;;;;;;;;5071138;28;20036;-82
2023/10/01 04:53:46;;;;;;;7.70;3.60;;;;;;;;;;5071058;28;20071;-82
2023/10/01 04:56:20;;;;;;;7.70;3.20;;;;;;;;;;5076043;28;20044;-82
2023/10/01 04:58:46;;;;;;;7.30;3.78;;;;;;;;;;5054599;28;20025;-80
2023/10/01 05:01:11;;;;;;;9.38;3.75;;;;;;;;;;5059501;28;20039;-81
2023/10/01 05:03:40;;;;;;;8.77;3.67;;;;;;;;;;5073859;28;20034;-82
2023/10/01 05:06:06;;;;;;;10.48;3.72;;;;;;;;;;5069093;28;20033;-81
2023/10/01 05:08:38;;;;;;;9.35;3.70;;;;;;;;;;5060975;28;20032;-82
2023/10/01 05:11:04;;;;;;;9.65;4.28;;;;;;;;;;5075419;28;20036;-82
2023/10/01 05:13:31;;;;;;;10.00;3.40;;;;;;;;;;5061011;28;20036;-82
2023/10/01 05:15:56;;;;;;;9.80;3.50;;;;;;;;;;5073325;28;20111;-82
2023/10/01 05:18:22;;;;;;;8.55;3.33;;;;;;;;;;5072323;28;20044;-81
2023/10/01 05:20:48;;;;;;;7.38;2.97;;;;;;;;;;5067564;28;20029;-81
2023/10/01 05:23:14;;;;;;;6.93;3.50;;;;;;;;;;5076380;28;20025;-81
2023/10/01 05:25:45;;;;;;;9.32;2.90;;;;;;;;;;5076017;28;20070;-82
2023/10/01 05:28:23;;;;;;;8.30;3.30;;;;;;;;;;5046747;28;20025;-82
2023/10/01 05:30:49;;;;;;;7.28;2.78;;;;;;;;;;5071435;28;20035;-82
2023/10/01 05:33:17;;;;;;;7.97;3.15;;;;;;;;;;5059149;28;20025;-82
2023/10/01 05:35:47;;;;;;;8.60;2.78;;;;;;;;;;5060157;28;20580;-82
2023/10/01 05:38:14;;;;;;;7.60;3.00;;;;;;;;;;5059630;28;20388;-82
2023/10/01 05:40:40;;;;;;;7.43;2.72;;;;;;;;;;5072848;28;20028;-82
2023/10/01 05:43:14;;;;;;;6.70;2.72;;;;;;;;;;5071014;28;20040;-82
2023/10/01 05:45:41;;;;;;;6.80;2.30;;;;;;;;;;5070661;28;20028;-82
2023/10/01 05:48:10;;;;;;;6.88;2.50;;;;;;;;;;5068313;28;20107;-82
2023/10/01 05:50:38;;;;;;;6.78;3.13;;;;;;;;;;5077383;28;20449;-82
2023/10/01 05:53:04;;;;;;;8.27;2.33;;;;;;;;;;5055687;28;20033;-82
2023/10/01 05:55:30;;;;;;;7.97;3.03;;;;;;;;;;5073621;28;20028;-82
2023/10/01 05:58:12;;;;;;;8.63;3.00;;;;;;;;;;5054665;28;20043;-80
2023/10/01 06:00:39;;;;;;;7.90;2.00;;;;;;;;;;5057168;28;20029;-82
2023/10/01 06:03:06;;;;;;;6.60;3.05;;;;;;;;;;5066837;28;20057;-81
2023/10/01 06:05:43;;;;;;;5.50;2.13;;;;;;;;;;5059188;28;20036;-82
2023/10/01 06:08:15;;;;;;;6.82;2.83;;;;;;;;;;5073300;28;20060;-80
2023/10/01 06:10:59;;;;;;;7.10;2.55;;;;;;;;;;5055429;28;20029;-82
2023/10/01 06:13:28;;;;;;;7.32;2.90;;;;;;;;;;5051959;28;20033;-81
2023/10/01 06:15:56;;;;;;;7.60;2.30;;;;;;;;;;5066113;28;20132;-80
2023/10/01 06:18:21;;;;;;;8.52;2.97;;;;;;;;;;5075919;28;20029;-82
2023/10/01 06:20:47;;;;;;;8.98;3.08;;;;;;;;;;5075971;28;20058;-82
2023/10/01 06:23:13;;;;;;;7.50;3.03;;;;;;;;;;5054489;28;20029;-82
2023/10/01 06:25:40;;;;;;;5.88;2.25;;;;;;;;;;5072067;28;20293;-82
2023/10/01 06:28:10;;;;;;;7.15;2.90;;;;;;;;;;5068030;28;20029;-81
2023/10/01 06:30:39;;;;;;;6.45;2.35;;;;;;;;;;5070025;28;20058;-82
2023/10/01 06:33:05;;;;;;;6.13;2.60;;;;;;;;;;5074459;28;20029;-82
2023/10/01 06:35:31;;;;;;;11.48;2.90;;;;;;;;;;5058815;28;20121;-82
2023/10/01 06:37:56;;;;;;;6.57;2.42;;;;;;;;;;5070147;28;20046;-79
2023/10/01 06:40:30;;;;;;;6.70;2.92;;;;;;;;;;5073355;28;20544;-82
2023/10/01 06:42:58;;;;;;;8.98;2.75;;;;;;;;;;5066036;28;20033;-82
2023/10/01 06:45:38;;;;;;;9.68;2.83;;;;;;;;;;5071769;28;20097;-81
2023/10/01 06:48:10;;;;;;;7.90;2.38;;;;;;;;;;5055592;28;20119;-82
2023/10/01 06:50:44;;;;;;;8.45;2.75;;;;;;;;;;5058390;28;20047;-80
2023/10/01 06:53:09;;;;;;;5.00;2.33;;;;;;;;;;5070959;28;20095;-81
2023/10/01 06:55:36;;;;;;;8.05;2.53;;;;;;;;;;5069143;28;20037;-82
2023/10/01 06:58:06;;;;;;;7.07;2.38;;;;;;;;;;5047836;28;20063;-82
2023/10/01 07:00:34;;;;;;;5.57;2.17;;;;;;;;;;5057334;28;20127;-80
2023/10/01 07:03:16;;;;;;;8.82;2.38;;;;;;;;;;5054615;28;20029;-82
2023/10/01 07:05:45;;;;;;;7.50;2.28;;;;;;;;;;5026591;28;20509;-82
2023/10/01 07:08:11;;;;;;;6.13;2.63;;;;;;;;;;5052414;28;20108;-82
2023/10/01 07:10:36;;;;;;;7.30;2.65;;;;;;;;;;5057848;28;20056;-82
2023/10/01 07:13:04;;;;;;;6.15;2.95;;;;;;;;;;5070394;28;20028;-80
2023/10/01 07:15:32;;;;;;;6.82;3.28;;;;;;;;;;5058032;28;20189;-82
2023/10/01 07:17:58;;;;;;;7.28;3.10;;;;;;;;;;5053431;28;20060;-79
2023/10/01 07:20:24;;;;;;;7.57;2.90;;;;;;;;;;5057428;28;20029;-82
2023/10/01 07:22:50;;;;;;;8.85;2.90;;;;;;;;;;5051636;28;20025;-82
2023/10/01 07:27:59;;;;;;;6.07;2.33;;;;;;;;;;5067679;28;20102;-82
2023/10/01 07:30:39;;;;;;;7.30;3.20;;;;;;;;;;5074474;28;20182;-82
2023/10/01 07:33:05;;;;;;;5.68;2.45;;;;;;;;;;5068989;28;20279;-82
2023/10/01 07:35:30;;;;;;;7.63;2.15;;;;;;;;;;5071933;28;20040;-82
2023/10/01 07:37:56;;;;;;;5.53;2.20;;;;;;;;;;5065610;28;20032;-82
2023/10/01 07:40:23;;;;;;;4.88;2.47;;;;;;;;;;5051766;28;20278;-82
2023/10/01 07:42:49;;;;;;;9.13;2.35;;;;;;;;;;5057519;28;20028;-82
2023/10/01 07:45:17;;;;;;;6.50;2.30;;;;;;;;;;5052851;28;20508;-82
2023/10/01 07:47:43;;;;;;;7.90;2.10;;;;;;;;;;5060002;28;20029;-82
2023/10/01 07:50:12;;;;;;;7.95;2.95;;;;;;;;;;5054351;28;20420;-82
2023/10/01 07:52:40;;;;;;;5.72;1.67;;;;;;;;;;5067074;28;20041;-82
2023/10/01 07:55:29;;;;;;;7.20;2.47;;;;;;;;;;5057171;28;20036;-82
2023/10/01 07:57:51;;;;;;;6.57;1.80;;;;;;;;;;5070683;28;20032;-82
2023/10/01 08:00:26;;;;;;;6.30;1.73;;;;;;;;;;5072756;28;20063;-82
2023/10/01 08:05:38;;;;;;;5.85;2.20;;;;;;;;;;5067473;28;20078;-82
2023/10/01 08:08:04;;;;;;;6.45;2.17;;;;;;;;;;5069913;28;20041;-82
2023/10/01 08:10:29;;;;;;;6.40;2.33;;;;;;;;;;5074591;28;20137;-82
2023/10/01 08:15:29;;;;;;;7.53;2.30;;;;;;;;;;5070185;28;20263;-82
2023/10/01 08:17:55;;;;;;;6.35;2.50;;;;;;;;;;5052849;28;20318;-81
2023/10/01 08:20:32;;;;;;;4.85;2.00;;;;;;;;;;5060721;28;20028;-80
2023/10/01 08:23:13;;;;;;;4.97;2.22;;;;;;;;;;5071201;28;20033;-82
2023/10/01 08:25:42;;;;;;;6.88;2.50;;;;;;;;;;5057861;28;20040;-81
2023/10/01 08:30:43;;;;;;;7.57;2.30;;;;;;;;;;5064417;28;20036;-80
2023/10/01 08:33:26;;;;;;;6.60;2.05;;;;;;;;;;5043654;28;20287;-82
2023/10/01 08:36:01;;;;;;;6.70;2.28;;;;;;;;;;5061025;28;20050;-82
2023/10/01 08:38:29;;;;;;;6.70;2.30;;;;;;;;;;5070211;28;20028;-82
2023/10/01 08:41:00;;;;;;;6.60;2.20;;;;;;;;;;5057982;28;20021;-82
2023/10/01 08:43:29;;;;;;;7.70;2.25;;;;;;;;;;5052184;28;20116;-81
2023/10/01 08:45:57;;;;;;;5.95;2.20;;;;;;;;;;5052690;28;20101;-82
2023/10/01 08:48:23;;;;;;;5.28;2.00;;;;;;;;;;5074771;28;20028;-81
2023/10/01 08:50:49;;;;;;;6.53;2.00;;;;;;;;;;5060184;28;20115;-80
2023/10/01 08:53:14;;;;;;;5.68;2.20;;;;;;;;;;5053354;28;20492;-82
2023/10/01 08:58:15;;;;;;;6.75;2.28;;;;;;;;;;5073725;28;20106;-82
2023/10/01 09:01:10;;;;;;;7.68;2.13;;;;;;;;;;5072609;28;20024;-81
2023/10/01 09:03:36;;;;;;;10.55;3.50;;;;;;;;;;5056529;28;20029;-82
2023/10/01 09:06:08;;;;;;;6.50;1.90;;;;;;;;;;5076256;28;20032;-82
2023/10/01 09:08:43;;;;;;;5.97;1.98;;;;;;;;;;5060178;28;20048;-82
2023/10/01 09:11:16;;;;;;;12.23;2.05;;;;;;;;;;5057951;28;20122;-82
2023/10/01 09:16:42;;;;;;;9.77;2.38;;;;;;;;;;5065033;28;20059;-80
2023/10/01 09:21:55;;;;;;;6.90;2.25;;;;;;;;;;5072352;28;20404;-82
2023/10/01 09:24:39;;;;;;;3.53;1.65;;;;;;;;;;5072599;28;20089;-82
2023/10/01 09:27:09;;;;;;;12.13;2.40;;;;;;;;;;5069430;28;20070;-82
2023/10/01 09:29:43;;;;;;;6.43;2.13;;;;;;;;;;5036070;28;20056;-82
2023/10/01 09:32:08;;;;;;;5.07;1.70;;;;;;;;;;5055319;28;20033;-82
2023/10/01 09:34:33;;;;;;;6.13;2.90;;;;;;;;;;5056657;28;20063;-82
2023/10/01 09:39:55;;;;;;;6.20;2.15;;;;;;;;;;5065061;28;20040;-81
2023/10/01 09:42:28;;;;;;;6.72;2.10;;;;;;;;;;5074472;28;20028;-82
2023/10/01 09:45:09;;;;;;;10.35;2.92;;;;;;;;;;5066647;28;20481;-82
2023/10/01 09:47:35;;;;;;;7.13;2.08;;;;;;;;;;5074781;28;20039;-82
2023/10/01 09:50:03;;;;;;;6.65;2.47;;;;;;;;;;5048543;28;20429;-82
2023/10/01 09:52:34;;;;;;;5.50;2.22;;;;;;;;;;5057878;28;20404;-82
2023/10/01 09:54:59;;;;;;;6.65;2.40;;;;;;;;;;5051860;28;20037;-82
2023/10/01 09:57:24;;;;;;;8.73;2.55;;;;;;;;;;5059268;28;20032;-82
2023/10/01 09:59:50;;;;;;;7.68;2.63;;;;;;;;;;5069382;28;20028;-81
2023/10/01 10:02:27;;;;;;;9.52;2.90;;;;;;;;;;5058156;28;20033;-82
2023/10/01 10:04:53;;;;;;;7.35;2.70;;;;;;;;;;5049257;28;20027;-82
2023/10/01 10:07:24;;;;;;;7.03;2.70;;;;;;;;;;5072651;28;20097;-82
2023/10/01 10:09:54;;;;;;;6.15;2.25;;;;;;;;;;5070771;28;20111;-82
2023/10/01 10:12:30;;;;;;;7.35;2.45;;;;;;;;;;5043292;28;20045;-82
2023/10/01 10:14:58;;;;;;;7.63;2.67;;;;;;;;;;5059935;28;20041;-82
2023/10/01 10:17:25;;;;;;;6.45;2.40;;;;;;;;;;5074499;28;20032;-83
2023/10/01 10:19:57;;;;;;;7.07;2.35;;;;;;;;;;5073369;28;20028;-83
2023/10/01 10:22:25;;;;;;;5.50;2.13;;;;;;;;;;5076540;28;20047;-82
2023/10/01 10:25:10;;;;;;;8.52;2.90;;;;;;;;;;5072549;28;20029;-81
2023/10/01 10:27:35;;;;;;;6.07;2.35;;;;;;;;;;5066847;28;20037;-82
2023/10/01 10:30:01;;;;;;;10.65;2.72;;;;;;;;;;5064894;28;20086;-82
2023/10/01 10:32:30;;;;;;;6.95;2.47;;;;;;;;;;5070615;28;20119;-81
2023/10/01 10:35:05;;;;;;;4.70;2.00;;;;;;;;;;5054047;28;20048;-83
2023/10/01 10:37:36;;;;;;;7.72;2.47;;;;;;;;;;5049428;28;20052;-80
2023/10/01 10:42:40;;;;;;;6.35;2.42;;;;;;;;;;5072218;28;20106;-82
2023/10/01 10:45:24;;;;;;;5.72;2.35;;;;;;;;;;5074581;28;20059;-82
2023/10/01 10:48:03;;;;;;;5.65;2.00;;;;;;;;;;5062195;28;20025;-82
2023/10/01 10:50:48;;;;;;;6.50;2.70;;;;;;;;;;5069400;28;20032;-82
2023/10/01 10:53:20;;;;;;;5.05;2.15;;;;;;;;;;5067253;28;20167;-82
2023/10/01 10:55:45;;;;;;;;;;;;;;;;;;5058887;28;20073;-82
2023/10/01 10:58:12;;;;;;;7.38;2.28;;;;;;;;;;5072356;28;19995;-82
2023/10/01 11:00:40;;;;;;;8.18;2.53;;;;;;;;;;5058771;28;20028;-82
2023/10/01 11:03:10;;;;;;;4.88;2.10;;;;;;;;;;5040719;28;20049;-82
2023/10/01 11:05:49;;;;;;;6.50;2.40;;;;;;;;;;5072408;28;20400;-82
2023/10/01 11:08:25;;;;;;;5.30;2.00;;;;;;;;;;5066992;28;20440;-81
2023/10/01 11:10:51;;;;;;;6.57;2.88;;;;;;;;;;5058165;28;20033;-81
2023/10/01 11:13:27;;;;;;;5.43;1.95;;;;;;;;;;5072974;28;20394;-82
2023/10/01 11:15:52;;;;;;;7.90;2.90;;;;;;;;;;5054079;28;20043;-82
2023/10/01 11:18:22;;;;;;;7.43;2.40;;;;;;;;;;5051519;28;20489;-82
2023/10/01 11:21:00;;;;;;;7.68;3.13;;;;;;;;;;5056379;28;20130;-81
2023/10/01 11:23:26;;;;;;;5.70;2.05;;;;;;;;;;5071126;28;20032;-82
2023/10/01 11:25:51;;;;;;;8.00;2.63;;;;;;;;;;5057937;28;20021;-83
2023/10/01 11:28:17;;;;;;;7.53;2.42;;;;;;;;;;5072652;28;20049;-83
2023/10/01 11:30:43;;;;;;;5.63;2.65;;;;;;;;;;5058264;28;20091;-80
2023/10/01 11:35:38;;;;;;;4.97;2.38;;;;;;;;;;5067760;28;20425;-81
2023/10/01 11:38:10;;;;;;;4.88;2.45;;;;;;;;;;5071372;28;20040;-80
2023/10/01 11:43:27;;;;;;;6.65;2.25;;;;;;;;;;5072021;28;20067;-82
2023/10/01 11:46:20;;;;;;;6.30;2.50;;;;;;;;;;5051127;28;20025;-82
2023/10/01 11:48:56;;;;;;;6.55;2.20;;;;;;;;;;5061304;28;20028;-83
2023/10/01 11:51:30;;;;;;;5.15;1.95;;;;;;;;;;5052762;28;20116;-82
2023/10/01 11:54:09;;;;;;;6.57;2.00;;;;;;;;;;5049053;28;20032;-82
2023/10/01 11:56:34;;;;;;;6.93;2.60;;;;;;;;;;5052481;28;20071;-83
2023/10/01 11:58:59;;;;;;;6.57;2.10;;;;;;;;;;5070935;28;20032;-82
2023/10/01 12:01:38;;;;;;;5.43;2.47;;;;;;;;;;5068400;28;20397;-82
2023/10/01 12:04:04;;;;;;;4.55;2.15;;;;;;;;;;5063959;28;20025;-82
2023/10/01 12:06:34;;;;;;;6.50;2.30;;;;;;;;;;5057771;28;20535;-82
2023/10/01 12:08:59;;;;;;;5.07;2.05;;;;;;;;;;5072766;28;20044;-82
2023/10/01 12:11:27;;;;;;;6.78;2.40;;;;;;;;;;5071267;28;20037;-82
2023/10/01 12:14:05;;;;;;;5.10;2.35;;;;;;;;;;5068551;28;20044;-82
2023/10/01 12:16:39;;;;;;;9.15;2.80;;;;;;;;;;5071092;28;20090;-82
2023/10/01 12:19:22;;;;;;;6.35;2.28;;;;;;;;;;5048760;28;20033;-83
2023/10/01 12:22:04;;;;;;;6.18;2.58;;;;;;;;;;5040826;28;20043;-81
2023/10/01 12:24:29;;;;;;;7.90;2.58;;;;;;;;;;5066865;28;20033;-81
2023/10/01 12:26:55;;;;;;;5.87;2.10;;;;;;;;;;5055327;28;20047;-82
2023/10/01 12:29:20;;;;;;;5.70;2.30;;;;;;;;;;5067943;28;20037;-83
2023/10/01 12:31:45;;;;;;;7.20;2.57;;;;;;;;;;5055734;28;20050;-83
2023/10/01 12:34:11;;;;;;;8.15;3.33;;;;;;;;;;5056238;28;20670;-82
2023/10/01 12:36:42;;;;;;;7.18;2.60;;;;;;;;;;5057169;28;20063;-81
2023/10/01 12:41:47;;;;;;;7.78;2.70;;;;;;;;;;5057230;28;20064;-82
2023/10/01 12:44:25;;;;;;;5.45;2.08;;;;;;;;;;5048600;28;20029;-82
2023/10/01 12:46:54;;;;;;;9.10;2.53;;;;;;;;;;5048918;28;20572;-81
2023/10/01 12:49:20;;;;;;;6.25;2.47;;;;;;;;;;5055007;28;20049;-82
2023/10/01 12:51:48;;;;;;;6.95;2.78;;;;;;;;;;5056738;28;20035;-82
2023/10/01 12:54:18;;;;;;;5.43;2.30;;;;;;;;;;5068366;28;20033;-82
2023/10/01 12:56:48;;;;;;;5.57;2.42;;;;;;;;;;5066354;28;20040;-82
2023/10/01 12:59:19;;;;;;;7.40;3.15;;;;;;;;;;5064942;28;20021;-82
2023/10/01 13:01:51;;;;;;;6.25;2.40;;;;;;;;;;5052616;28;20560;-81
2023/10/01 13:04:25;;;;;;;4.32;2.33;;;;;;;;;;5051898;28;20051;-81
2023/10/01 13:06:51;;;;;;;6.43;2.92;;;;;;;;;;5072788;28;20033;-81
2023/10/01 13:09:37;;;;;;;4.60;2.38;;;;;;;;;;5071386;28;20033;-82
2023/10/01 13:12:15;;;;;;;6.10;2.47;;;;;;;;;;5060146;28;20086;-81
2023/10/01 13:14:41;;;;;;;6.80;2.58;;;;;;;;;;5072822;28;20040;-82
2023/10/01 13:17:19;;;;;;;6.28;2.20;;;;;;;;;;5075615;28;20547;-81
2023/10/01 13:19:47;;;;;;;5.30;2.50;;;;;;;;;;5074975;28;20033;-82
2023/10/01 13:22:12;;;;;;;6.28;2.90;;;;;;;;;;5053142;28;20052;-82
2023/10/01 13:24:38;;;;;;;6.03;2.77;;;;;;;;;;5059873;28;20032;-82
2023/10/01 13:27:10;;;;;;;6.40;3.05;;;;;;;;;;5070842;28;20282;-82
2023/10/01 13:29:35;;;;;;;5.85;2.45;;;;;;;;;;5070781;28;20047;-82
2023/10/01 13:32:04;;;;;;;5.85;2.70;;;;;;;;;;5072206;28;20033;-82
2023/10/01 13:34:48;;;;;;;5.85;2.80;;;;;;;;;;5073457;28;20035;-82
2023/10/01 13:37:26;;;;;;;5.68;2.55;;;;;;;;;;5050244;28;20033;-83
2023/10/01 13:40:10;;;;;;;5.40;2.22;;;;;;;;;;5054850;28;20032;-83
2023/10/01 14:09:58;;;;;;;4.75;2.45;;;;;;;;;;5070191;28;20025;-83
2023/10/01 14:12:41;;;;;;;6.30;3.33;;;;;;;;;;5075701;28;20033;-82
2023/10/01 14:15:20;;;;;;;7.95;3.13;;;;;;;;;;5072065;28;20021;-82
2023/10/01 14:17:53;;;;;;;7.93;3.60;;;;;;;;;;5059782;28;20028;-82
2023/10/01 14:25:58;;;;;;;9.43;3.42;;;;;;;;;;5076168;28;20070;-83
2023/10/01 14:28:24;;;;;;;8.13;3.70;;;;;;;;;;5057520;28;20033;-82
2023/10/01 14:30:59;;;;;;;8.73;3.20;;;;;;;;;;5055213;28;20024;-82
2023/10/01 14:33:27;;;;;;;8.27;3.10;;;;;;;;;;5070222;28;20029;-82
2023/10/01 14:35:54;;;;;;;7.18;2.90;;;;;;;;;;5054809;28;20031;-81
2023/10/01 14:38:21;;;;;;;6.43;2.85;;;;;;;;;;5076190;28;20033;-82
2023/10/01 14:40:56;;;;;;;6.18;2.88;;;;;;;;;;5059776;28;20037;-82
2023/10/01 14:43:24;;;;;;;7.25;2.65;;;;;;;;;;5054275;28;20021;-83
2023/10/01 14:45:51;;;;;;;5.80;2.72;;;;;;;;;;5070516;28;20028;-82
2023/10/01 14:48:16;;;;;;;7.85;3.00;;;;;;;;;;5051489;28;20060;-82
2023/10/01 14:50:41;;;;;;;5.70;2.30;;;;;;;;;;5069247;28;20028;-81
2023/10/01 14:53:12;;;;;;;6.93;3.10;;;;;;;;;;5072046;28;20379;-82
2023/10/01 14:55:40;;;;;;;6.95;3.03;;;;;;;;;;5058836;28;20020;-82
2023/10/01 14:58:15;;;;;;;5.93;2.70;;;;;;;;;;5054855;28;20032;-81
2023/10/01 15:00:51;;;;;;;5.78;2.70;;;;;;;;;;5066307;28;20098;-83
2023/10/01 15:03:17;;;;;;;6.03;2.60;;;;;;;;;;5049585;28;20374;-82
2023/10/01 15:05:42;;;;;;;8.43;2.85;;;;;;;;;;5050233;28;20107;-82
2023/10/01 15:08:07;;;;;;;7.15;3.08;;;;;;;;;;5057551;28;20092;-83
2023/10/01 15:10:32;;;;;;;7.07;3.13;;;;;;;;;;5065812;28;20582;-82
2023/10/01 15:13:01;;;;;;;8.27;3.17;;;;;;;;;;5071138;28;20271;-81
2023/10/01 15:15:26;;;;;;;7.40;3.55;;;;;;;;;;5072781;28;20270;-83
2023/10/01 15:17:54;;;;;;;9.40;3.50;;;;;;;;;;5053934;28;20455;-82
2023/10/01 15:20:27;;;;;;;10.75;3.75;;;;;;;;;;5054448;28;20836;-82
2023/10/01 15:22:55;;;;;;;6.95;3.55;;;;;;;;;;5058658;28;20020;-82
2023/10/01 15:25:21;;;;;;;7.60;3.72;;;;;;;;;;5039918;28;20028;-82
2023/10/01 15:27:47;;;;;;;8.18;4.15;;;;;;;;;;5054080;28;20070;-83
2023/10/01 15:30:21;;;;;;;9.27;3.85;;;;;;;;;;5066537;28;20032;-82
2023/10/01 15:32:55;;;;;;;7.97;3.38;;;;;;;;;;5071192;28;20112;-82
2023/10/01 15:35:23;;;;;;;10.00;4.57;;;;;;;;;;5055260;28;20033;-83
2023/10/01 15:37:48;;;;;;;6.95;3.58;;;;;;;;;;5041648;28;20100;-82
2023/10/01 15:40:25;;;;;;;8.90;4.22;;;;;;;;;;5069976;28;20028;-82
2023/10/01 15:42:53;;;;;;;9.38;4.10;;;;;;;;;;5068260;28;20451;-82
2023/10/01 15:45:18;;;;;;;9.35;4.07;;;;;;;;;;5051480;28;20062;-82
2023/10/01 15:47:47;;;;;;;8.90;3.88;;;;;;;;;;5067797;28;20123;-83
2023/10/01 15:50:16;;;;;;;7.68;4.15;;;;;;;;;;5057084;28;20056;-82
2023/10/01 15:52:46;;;;;;;8.50;4.32;;;;;;;;;;5047785;28;20025;-82
2023/10/01 15:55:55;;;;;;;7.38;4.10;;;;;;;;;;5068971;28;20033;-82
2023/10/01 15:58:24;;;;;;;9.90;4.25;;;;;;;;;;5042466;28;20037;-82
2023/10/01 16:00:49;;;;;;;9.20;4.47;;;;;;;;;;5071624;28;20025;-82
2023/10/01 16:03:15;;;;;;;6.78;3.50;;;;;;;;;;5056639;28;20031;-82
2023/10/01 16:05:41;;;;;;;8.45;3.92;;;;;;;;;;5057617;28;20029;-82
2023/10/01 16:08:07;;;;;;;8.95;4.47;;;;;;;;;;5055416;28;20050;-82
2023/10/01 16:10:45;;;;;;;7.97;4.00;;;;;;;;;;5070508;28;20028;-83
2023/10/01 16:13:27;;;;;;;6.45;3.35;;;;;;;;;;5046938;28;20104;-82
2023/10/01 16:15:52;;;;;;;;;;;;;;;;;;5050020;28;20037;-83